createdAt,value
2019-03-02T00:01:53.839Z,18.33
2019-03-02T00:04:24.124Z,20.33
2019-03-02T00:06:54.418Z,21.00
2019-03-02T00:09:24.906Z,21.17
2019-03-02T00:11:56.475Z,23.17
2019-03-02T00:14:27.822Z,20.90
2019-03-02T00:16:58.157Z,19.13
2019-03-02T00:19:28.432Z,17.13
2019-03-02T00:21:58.795Z,18.10
2019-03-02T00:24:29.125Z,19.60
2019-03-02T00:26:59.449Z,21.93
2019-03-02T00:29:30.142Z,24.77
2019-03-02T00:32:01.730Z,23.17
2019-03-02T00:34:32.172Z,26.90
2019-03-02T00:37:03.730Z,28.33
2019-03-02T00:39:34.496Z,29.83
2019-03-02T00:42:04.819Z,30.57
2019-03-02T00:44:35.743Z,31.27
2019-03-02T00:47:07.482Z,30.77
2019-03-02T00:49:37.851Z,29.47
2019-03-02T00:52:08.212Z,30.47
2019-03-02T00:54:38.585Z,30.50
2019-03-02T00:57:09.385Z,30.17
2019-03-02T00:59:40.461Z,30.80
2019-03-02T01:02:10.811Z,29.00
2019-03-02T01:04:41.447Z,31.77
2019-03-02T01:07:12.170Z,29.20
2019-03-02T01:09:43.586Z,31.70
2019-03-02T01:12:14.675Z,31.10
2019-03-02T01:14:45.402Z,31.53
2019-03-02T01:17:15.899Z,26.50
2019-03-02T01:19:49.008Z,26.40
2019-03-02T01:22:18.234Z,24.67
2019-03-02T01:24:48.945Z,25.00
2019-03-02T01:27:19.590Z,25.10
2019-03-02T01:29:51.604Z,21.33
2019-03-02T01:32:22.469Z,23.00
2019-03-02T01:34:53.124Z,23.73
2019-03-02T01:37:23.421Z,19.77
2019-03-02T01:39:53.945Z,21.57
2019-03-02T01:42:25.908Z,27.60
2019-03-02T01:44:56.739Z,23.63
2019-03-02T01:47:27.106Z,21.60
2019-03-02T01:49:57.724Z,26.20
2019-03-02T01:52:30.556Z,27.10
2019-03-02T01:55:00.578Z,29.53
2019-03-02T01:57:30.846Z,29.17
2019-03-02T02:00:02.206Z,26.33
2019-03-02T02:02:36.111Z,25.63
2019-03-02T02:05:07.156Z,25.20
2019-03-02T02:07:37.445Z,27.20
2019-03-02T02:10:10.897Z,26.67
2019-03-02T02:12:41.396Z,27.13
2019-03-02T02:15:14.410Z,27.03
2019-03-02T02:17:45.341Z,21.03
2019-03-02T02:20:15.988Z,24.10
2019-03-02T02:22:46.417Z,21.63
2019-03-02T02:25:17.563Z,24.00
2019-03-02T02:27:47.856Z,20.00
2019-03-02T02:30:26.901Z,21.97
2019-03-02T02:33:03.932Z,23.43
2019-03-02T02:35:30.277Z,22.50
2019-03-02T02:38:00.955Z,24.37
2019-03-02T02:40:31.701Z,23.80
2019-03-02T02:43:02.011Z,20.43
2019-03-02T02:45:32.536Z,17.63
2019-03-02T02:48:02.971Z,16.87
2019-03-02T02:50:33.251Z,19.53
2019-03-02T02:53:06.953Z,21.17
2019-03-02T02:55:40.502Z,21.80
2019-03-02T02:58:12.635Z,19.67
2019-03-02T03:00:40.234Z,18.27
2019-03-02T03:03:10.690Z,19.07
2019-03-02T03:05:41.075Z,17.33
2019-03-02T03:08:11.502Z,17.53
2019-03-02T03:10:43.323Z,13.87
2019-03-02T03:13:13.984Z,13.63
2019-03-02T03:15:46.515Z,13.67
2019-03-02T03:18:16.959Z,15.10
2019-03-02T03:20:49.050Z,12.87
2019-03-02T03:23:24.490Z,11.80
2019-03-02T03:25:56.859Z,12.50
2019-03-02T03:28:26.041Z,11.70
2019-03-02T03:30:56.202Z,11.73
2019-03-02T03:33:26.683Z,12.63
2019-03-02T03:35:58.771Z,12.30
2019-03-02T03:38:29.724Z,9.70
2019-03-02T03:41:05.233Z,10.70
2019-03-02T03:43:41.558Z,11.50
2019-03-02T03:46:05.986Z,9.70
2019-03-02T03:48:36.782Z,10.97
2019-03-02T03:51:08.071Z,10.37
2019-03-02T03:53:38.669Z,9.40
2019-03-02T03:56:10.513Z,10.93
2019-03-02T03:58:41.520Z,10.13
2019-03-02T04:01:17.111Z,9.50
2019-03-02T04:03:47.084Z,10.23
2019-03-02T04:06:16.876Z,10.17
2019-03-02T04:08:47.681Z,8.80
2019-03-02T04:11:18.173Z,8.80
2019-03-02T04:13:48.536Z,8.87
2019-03-02T04:16:20.563Z,7.43
2019-03-02T04:18:58.598Z,8.20
2019-03-02T04:21:46.261Z,11.00
2019-03-02T04:24:16.903Z,7.63
2019-03-02T04:26:47.165Z,6.70
2019-03-02T04:29:17.514Z,6.53
2019-03-02T04:31:50.283Z,5.30
2019-03-02T04:34:22.675Z,5.93
2019-03-02T04:36:52.896Z,7.50
2019-03-02T04:39:23.244Z,5.77
2019-03-02T04:41:53.600Z,5.60
2019-03-02T04:44:25.747Z,6.93
2019-03-02T04:46:56.496Z,5.93
2019-03-02T04:49:26.979Z,6.00
2019-03-02T04:51:58.424Z,4.93
2019-03-02T04:54:29.095Z,5.80
2019-03-02T04:56:59.845Z,5.70
2019-03-02T04:59:30.832Z,6.23
2019-03-02T05:02:01.460Z,5.37
2019-03-02T05:04:32.300Z,6.07
2019-03-02T05:07:03.463Z,6.13
2019-03-02T05:09:33.952Z,5.87
2019-03-02T05:12:04.324Z,5.93
2019-03-02T05:14:36.774Z,5.53
2019-03-02T05:17:07.309Z,5.90
2019-03-02T05:19:39.118Z,5.77
2019-03-02T05:22:09.790Z,6.33
2019-03-02T05:24:40.587Z,7.10
2019-03-02T05:27:12.531Z,6.00
2019-03-02T05:29:43.133Z,6.00
2019-03-02T05:32:16.067Z,5.73
2019-03-02T05:34:45.782Z,5.50
2019-03-02T05:37:17.122Z,7.20
2019-03-02T05:39:49.520Z,5.43
2019-03-02T05:42:20.274Z,5.67
2019-03-02T05:44:50.553Z,5.17
2019-03-02T05:47:20.931Z,6.03
2019-03-02T05:49:54.562Z,5.90
2019-03-02T05:52:23.532Z,5.80
2019-03-02T05:54:53.958Z,6.13
2019-03-02T05:57:24.732Z,4.77
2019-03-02T05:59:55.100Z,6.10
2019-03-02T06:02:25.494Z,6.67
2019-03-02T06:04:57.037Z,4.67
2019-03-02T06:07:28.171Z,5.80
2019-03-02T06:09:58.889Z,5.73
2019-03-02T06:12:29.207Z,5.73
2019-03-02T06:14:59.538Z,5.97
2019-03-02T06:17:33.144Z,5.77
2019-03-02T06:20:02.095Z,5.33
2019-03-02T06:22:32.406Z,5.60
2019-03-02T06:25:04.213Z,5.37
2019-03-02T06:27:34.642Z,6.23
2019-03-02T06:30:08.339Z,5.80
2019-03-02T06:32:38.054Z,5.90
2019-03-02T06:35:09.471Z,4.87
2019-03-02T06:37:39.792Z,6.40
2019-03-02T06:40:10.338Z,6.70
2019-03-02T06:42:45.156Z,6.10
2019-03-02T06:45:13.720Z,6.33
2019-03-02T06:47:44.192Z,6.70
2019-03-02T06:50:14.741Z,6.67
2019-03-02T06:52:46.255Z,5.77
2019-03-02T06:55:16.517Z,6.47
2019-03-02T06:57:49.921Z,6.83
2019-03-02T07:00:19.452Z,7.30
2019-03-02T07:02:50.113Z,5.57
2019-03-02T07:05:20.448Z,6.53
2019-03-02T07:07:53.664Z,5.60
2019-03-02T07:10:23.504Z,6.57
2019-03-02T07:12:57.598Z,6.13
2019-03-02T07:15:27.875Z,6.53
2019-03-02T07:18:17.151Z,7.13
2019-03-02T07:20:47.557Z,6.93
2019-03-02T07:23:18.223Z,7.37
2019-03-02T07:25:50.078Z,8.27
2019-03-02T07:28:20.720Z,7.43
2019-03-02T07:30:51.025Z,6.73
2019-03-02T07:33:22.921Z,7.70
2019-03-02T07:35:55.460Z,7.03
2019-03-02T07:38:26.184Z,7.43
2019-03-02T07:40:56.884Z,6.43
2019-03-02T07:43:27.407Z,7.23
2019-03-02T07:45:58.000Z,7.47
2019-03-02T07:48:28.317Z,7.27
2019-03-02T07:51:00.996Z,7.93
2019-03-02T07:53:31.181Z,7.73
2019-03-02T07:56:01.521Z,6.53
2019-03-02T07:58:32.311Z,5.57
2019-03-02T08:01:03.050Z,6.33
2019-03-02T08:03:33.687Z,5.83
2019-03-02T08:06:03.983Z,6.37
2019-03-02T08:08:34.587Z,5.67
2019-03-02T08:11:05.460Z,6.43
2019-03-02T08:13:36.601Z,5.80
2019-03-02T08:16:08.370Z,5.63
2019-03-02T08:18:38.800Z,5.87
2019-03-02T08:21:09.511Z,6.17
2019-03-02T08:23:40.452Z,6.77
2019-03-02T08:26:10.961Z,5.40
2019-03-02T08:28:42.066Z,5.03
2019-03-02T08:31:14.033Z,5.50
2019-03-02T08:33:46.102Z,6.07
2019-03-02T08:36:18.201Z,6.77
2019-03-02T08:38:50.067Z,4.87
2019-03-02T08:41:20.354Z,5.03
2019-03-02T08:43:50.886Z,4.90
2019-03-02T08:46:21.411Z,4.90
2019-03-02T08:48:51.768Z,5.60
2019-03-02T08:51:22.155Z,3.83
2019-03-02T08:53:52.495Z,4.60
2019-03-02T08:56:23.112Z,4.80
2019-03-02T08:58:53.792Z,4.03
2019-03-02T09:01:24.075Z,3.40
2019-03-02T09:03:54.654Z,3.37
2019-03-02T09:06:26.045Z,4.03
2019-03-02T09:08:56.548Z,3.43
2019-03-02T09:11:26.805Z,4.87
2019-03-02T09:13:57.197Z,3.93
2019-03-02T09:16:27.565Z,4.73
2019-03-02T09:18:57.854Z,4.53
2019-03-02T09:21:28.600Z,4.17
2019-03-02T09:23:59.056Z,4.70
2019-03-02T09:26:29.783Z,3.77
2019-03-02T09:29:00.492Z,3.50
2019-03-02T09:31:30.807Z,4.10
2019-03-02T09:34:04.146Z,3.40
2019-03-02T09:36:33.501Z,4.13
2019-03-02T09:39:05.559Z,3.90
2019-03-02T09:41:36.265Z,4.87
2019-03-02T09:44:07.070Z,5.50
2019-03-02T09:46:37.457Z,5.17
2019-03-02T09:49:08.262Z,5.43
2019-03-02T09:51:38.954Z,4.70
2019-03-02T09:54:09.346Z,5.10
2019-03-02T09:56:39.763Z,6.00
2019-03-02T09:59:10.257Z,7.17
2019-03-02T10:01:40.681Z,6.33
2019-03-02T10:04:11.386Z,7.33
2019-03-02T10:06:41.716Z,7.63
2019-03-02T10:09:13.037Z,8.20
2019-03-02T10:11:43.626Z,7.67
2019-03-02T10:14:35.016Z,7.93
2019-03-02T10:17:05.736Z,8.23
2019-03-02T10:19:36.926Z,7.23
2019-03-02T10:22:07.386Z,7.43
2019-03-02T10:24:39.642Z,8.00
2019-03-02T10:27:09.932Z,7.77
2019-03-02T10:29:40.538Z,6.90
2019-03-02T10:32:12.753Z,6.73
2019-03-02T10:34:43.077Z,5.83
2019-03-02T10:37:13.812Z,7.07
2019-03-02T10:39:44.233Z,5.70
2019-03-02T10:42:14.510Z,6.73
2019-03-02T10:44:45.183Z,6.30
2019-03-02T10:47:15.749Z,7.23
2019-03-02T10:49:48.444Z,7.07
2019-03-02T10:52:18.083Z,7.40
2019-03-02T10:54:48.856Z,6.67
2019-03-02T10:57:19.458Z,5.57
2019-03-02T10:59:51.695Z,6.30
2019-03-02T11:02:22.172Z,8.03
2019-03-02T11:05:07.626Z,6.43
2019-03-02T11:08:06.294Z,6.37
2019-03-02T11:10:54.104Z,6.93
2019-03-02T11:13:33.829Z,7.07
2019-03-02T11:16:27.674Z,7.37
2019-03-02T11:19:25.899Z,6.50
2019-03-02T11:22:23.701Z,7.60
2019-03-02T11:25:13.525Z,6.00
2019-03-02T11:28:11.953Z,6.37
2019-03-02T11:31:02.322Z,5.67
2019-03-02T11:34:01.131Z,4.93
2019-03-02T11:37:02.574Z,5.53
2019-03-02T11:39:38.935Z,5.60
2019-03-02T11:42:26.789Z,5.27
2019-03-02T11:45:04.638Z,5.50
2019-03-02T11:47:59.761Z,5.30
2019-03-02T11:50:52.406Z,5.50
2019-03-02T11:53:55.272Z,5.27
2019-03-02T11:56:42.643Z,4.93
2019-03-02T11:59:41.999Z,5.27
2019-03-02T12:02:36.082Z,4.77
2019-03-02T12:05:18.826Z,4.97
2019-03-02T12:08:06.478Z,4.73
2019-03-02T12:10:58.818Z,5.03
2019-03-02T12:13:50.828Z,5.23
2019-03-02T12:16:38.069Z,4.57
2019-03-02T12:19:29.677Z,4.67
2019-03-02T12:22:22.637Z,5.83
2019-03-02T12:25:10.062Z,5.23
2019-03-02T12:28:02.535Z,4.73
2019-03-02T12:31:00.882Z,5.00
2019-03-02T12:33:42.354Z,5.17
2019-03-02T12:36:49.257Z,4.47
2019-03-02T12:39:29.568Z,5.00
2019-03-02T12:42:17.765Z,5.23
2019-03-02T12:45:07.245Z,5.70
2019-03-02T12:48:02.930Z,5.83
2019-03-02T12:50:42.400Z,4.33
2019-03-02T12:53:30.739Z,5.40
2019-03-02T12:56:35.684Z,5.30
2019-03-02T12:59:18.318Z,5.43
2019-03-02T13:01:56.272Z,5.40
2019-03-02T13:04:45.337Z,4.67
2019-03-02T13:07:38.798Z,4.63
2019-03-02T13:10:24.994Z,5.20
2019-03-02T13:13:03.426Z,4.87
2019-03-02T13:15:45.357Z,4.87
2019-03-02T13:18:33.042Z,5.83
2019-03-02T13:21:22.482Z,5.73
2019-03-02T13:24:08.564Z,4.57
2019-03-02T13:26:56.395Z,3.67
2019-03-02T13:29:49.199Z,3.47
2019-03-02T13:32:38.158Z,4.43
2019-03-02T13:35:30.685Z,3.77
2019-03-02T13:38:23.176Z,4.17
2019-03-02T13:41:11.228Z,4.47
2019-03-02T13:44:02.039Z,4.87
2019-03-02T13:46:52.607Z,5.43
2019-03-02T13:49:48.275Z,5.20
2019-03-02T13:52:40.256Z,4.37
2019-03-02T13:55:14.658Z,5.37
2019-03-02T13:58:03.974Z,4.87
2019-03-02T14:01:02.148Z,5.30
2019-03-02T14:04:09.965Z,5.10
2019-03-02T14:07:14.435Z,5.47
2019-03-02T14:10:03.655Z,6.67
2019-03-02T14:12:55.890Z,5.67
2019-03-02T14:15:42.374Z,6.80
2019-03-02T14:18:28.436Z,6.30
2019-03-02T14:21:19.940Z,6.30
2019-03-02T14:24:15.703Z,6.00
2019-03-02T14:27:13.834Z,6.33
2019-03-02T14:29:49.782Z,5.50
2019-03-02T14:32:32.760Z,7.07
2019-03-02T14:35:24.977Z,6.23
2019-03-02T14:38:08.731Z,6.40
2019-03-02T14:40:56.149Z,6.60
2019-03-02T14:43:36.637Z,7.00
2019-03-02T14:46:27.190Z,6.50
2019-03-02T14:49:31.685Z,5.93
2019-03-02T14:52:21.086Z,6.60
2019-03-02T14:55:01.184Z,6.07
2019-03-02T14:57:39.629Z,6.53
2019-03-02T15:00:22.979Z,6.70
2019-03-02T15:03:11.175Z,7.00
2019-03-02T15:06:08.730Z,7.33
2019-03-02T15:08:55.053Z,6.67
2019-03-02T15:11:43.087Z,5.30
2019-03-02T15:14:22.179Z,4.83
2019-03-02T15:17:09.120Z,5.80
2019-03-02T15:19:57.258Z,5.80
2019-03-02T15:22:41.749Z,5.90
2019-03-02T15:25:34.157Z,5.30
2019-03-02T15:28:11.660Z,6.67
2019-03-02T15:31:10.056Z,6.40
2019-03-02T15:34:05.306Z,6.70
2019-03-02T15:36:44.068Z,6.80
2019-03-02T15:39:39.180Z,7.30
2019-03-02T15:42:27.142Z,7.27
2019-03-02T15:45:05.937Z,7.33
2019-03-02T15:48:01.109Z,7.30
2019-03-02T15:50:54.587Z,7.73
2019-03-02T15:53:36.134Z,8.27
2019-03-02T15:56:37.535Z,8.37
2019-03-02T15:59:36.065Z,8.27
2019-03-02T16:02:42.132Z,8.63
2019-03-02T16:05:44.231Z,8.70
2019-03-02T16:08:36.231Z,7.60
2019-03-02T16:11:40.419Z,8.07
2019-03-02T16:14:45.058Z,9.93
2019-03-02T16:17:46.347Z,9.20
2019-03-02T16:20:25.399Z,10.13
2019-03-02T16:23:09.702Z,9.23
2019-03-02T16:25:58.978Z,8.57
2019-03-02T16:28:51.354Z,8.73
2019-03-02T16:31:41.296Z,10.10
2019-03-02T16:34:23.736Z,8.97
2019-03-02T16:37:20.170Z,9.33
2019-03-02T16:40:06.954Z,8.17
2019-03-02T16:42:55.485Z,9.80
2019-03-02T16:46:00.820Z,9.73
2019-03-02T16:49:00.922Z,9.17
2019-03-02T16:51:45.600Z,10.50
2019-03-02T16:54:44.513Z,10.60
2019-03-02T16:57:34.917Z,9.17
2019-03-02T17:00:30.674Z,11.20
2019-03-02T17:03:18.820Z,11.13
2019-03-02T17:06:09.751Z,9.60
2019-03-02T17:08:59.928Z,9.60
2019-03-02T17:11:37.792Z,9.10
2019-03-02T17:14:30.590Z,11.27
2019-03-02T17:17:29.648Z,10.43
2019-03-02T17:20:10.614Z,11.37
2019-03-02T17:22:56.454Z,11.37
2019-03-02T17:25:37.938Z,10.67
2019-03-02T17:28:36.341Z,18.60
2019-03-02T17:31:18.116Z,20.50
2019-03-02T17:34:09.904Z,14.33
2019-03-02T17:36:56.953Z,18.80
2019-03-02T17:39:45.039Z,20.50
2019-03-02T17:42:40.591Z,16.33
2019-03-02T17:45:23.715Z,17.87
2019-03-02T17:48:13.048Z,17.30
2019-03-02T17:51:02.362Z,14.53
2019-03-02T17:53:46.335Z,15.37
2019-03-02T17:56:37.017Z,16.40
2019-03-02T17:59:27.825Z,15.43
2019-03-02T18:02:19.962Z,13.07
2019-03-02T18:05:13.341Z,14.73
2019-03-02T18:07:50.997Z,13.57
2019-03-02T18:10:40.547Z,14.83
2019-03-02T18:13:35.685Z,13.90
2019-03-02T18:16:27.120Z,12.57
2019-03-02T18:18:57.500Z,10.83
2019-03-02T18:21:29.690Z,11.60
2019-03-02T18:24:00.704Z,11.20
2019-03-02T18:26:31.656Z,10.80
2019-03-02T18:29:02.035Z,12.23
2019-03-02T18:31:32.662Z,11.90
2019-03-02T18:34:07.307Z,12.63
2019-03-02T18:36:41.786Z,11.77
2019-03-02T18:39:09.931Z,11.47
2019-03-02T18:41:42.060Z,11.80
2019-03-02T18:44:12.416Z,11.67
2019-03-02T18:46:42.778Z,11.97
2019-03-02T18:49:21.462Z,11.33
2019-03-02T18:52:17.127Z,12.67
2019-03-02T18:54:49.416Z,14.13
2019-03-02T18:57:20.986Z,15.03
2019-03-02T18:59:51.303Z,12.47
2019-03-02T19:02:21.953Z,13.60
2019-03-02T19:04:54.667Z,13.37
2019-03-02T19:07:25.160Z,15.40
2019-03-02T19:09:55.728Z,13.43
2019-03-02T19:12:27.995Z,16.17
2019-03-02T19:14:59.202Z,16.80
2019-03-02T19:17:30.081Z,14.53
2019-03-02T19:20:00.353Z,15.40
2019-03-02T19:22:31.167Z,15.97
2019-03-02T19:25:01.733Z,17.03
2019-03-02T19:27:32.133Z,14.87
2019-03-02T19:30:02.803Z,14.57
2019-03-02T19:32:33.772Z,13.97
2019-03-02T19:35:05.138Z,13.57
2019-03-02T19:37:35.806Z,13.10
2019-03-02T19:40:08.528Z,15.57
2019-03-02T19:42:38.877Z,15.93
2019-03-02T19:45:10.268Z,14.43
2019-03-02T19:47:40.755Z,11.80
2019-03-02T19:50:13.163Z,13.87
2019-03-02T19:52:43.964Z,13.23
2019-03-02T19:55:14.843Z,15.93
2019-03-02T19:57:45.250Z,16.10
2019-03-02T20:00:29.310Z,14.53
2019-03-02T20:03:00.012Z,14.33
2019-03-02T20:05:30.323Z,14.63
2019-03-02T20:08:01.068Z,13.37
2019-03-02T20:10:32.458Z,16.63
2019-03-02T20:13:03.106Z,15.83
2019-03-02T20:15:33.950Z,18.63
2019-03-02T20:18:04.481Z,15.27
2019-03-02T20:20:34.799Z,15.90
2019-03-02T20:23:05.946Z,14.93
2019-03-02T20:25:36.304Z,14.87
2019-03-02T20:28:07.046Z,13.83
2019-03-02T20:30:37.421Z,13.33
2019-03-02T20:33:07.735Z,13.77
2019-03-02T20:35:38.702Z,14.77
2019-03-02T20:38:09.609Z,13.70
2019-03-02T20:40:39.953Z,13.17
2019-03-02T20:43:10.527Z,13.17
2019-03-02T20:45:40.896Z,14.00
2019-03-02T20:48:11.321Z,13.77
2019-03-02T20:50:42.090Z,13.27
2019-03-02T20:53:12.875Z,13.03
2019-03-02T20:55:43.186Z,12.73
2019-03-02T20:58:13.951Z,11.30
2019-03-02T21:00:44.719Z,13.00
2019-03-02T21:03:16.669Z,12.57
2019-03-02T21:05:46.968Z,12.57
2019-03-02T21:08:18.078Z,11.63
2019-03-02T21:10:48.525Z,12.27
2019-03-02T21:13:19.065Z,12.23
2019-03-02T21:15:49.720Z,12.30
2019-03-02T21:18:20.259Z,13.13
2019-03-02T21:20:50.563Z,11.60
2019-03-02T21:23:21.246Z,13.83
2019-03-02T21:25:51.727Z,14.17
2019-03-02T21:28:24.228Z,14.23
2019-03-02T21:30:54.520Z,14.33
2019-03-02T21:33:25.023Z,14.27
2019-03-02T21:35:55.603Z,15.43
2019-03-02T21:38:26.117Z,14.07
2019-03-02T21:40:56.416Z,17.50
2019-03-02T21:43:27.131Z,14.67
2019-03-02T21:45:57.564Z,12.67
2019-03-02T21:48:27.977Z,12.33
2019-03-02T21:50:58.486Z,12.30
2019-03-02T21:53:28.932Z,10.97
2019-03-02T21:55:59.304Z,11.03
2019-03-02T21:58:29.894Z,12.00
2019-03-02T22:01:00.242Z,11.37
2019-03-02T22:03:31.057Z,11.60
2019-03-02T22:06:01.531Z,11.30
2019-03-02T22:08:31.928Z,10.00
2019-03-02T22:11:05.677Z,12.00
2019-03-02T22:13:37.289Z,11.27
2019-03-02T22:16:07.563Z,10.97
2019-03-02T22:18:38.024Z,10.37
2019-03-02T22:21:08.713Z,12.27
2019-03-02T22:23:40.033Z,11.73
2019-03-02T22:26:10.424Z,12.77
2019-03-02T22:28:41.129Z,12.47
2019-03-02T22:31:11.448Z,11.77
2019-03-02T22:33:42.235Z,11.87
2019-03-02T22:36:12.515Z,12.73
2019-03-02T22:38:42.988Z,12.90
2019-03-02T22:41:13.988Z,12.40
2019-03-02T22:43:44.307Z,12.97
2019-03-02T22:46:15.084Z,13.50
2019-03-02T22:48:45.825Z,13.27
2019-03-02T22:51:16.109Z,13.77
2019-03-02T22:53:46.467Z,12.50
2019-03-02T22:56:17.072Z,14.37
2019-03-02T22:58:46.612Z,14.63
2019-03-02T23:02:10.075Z,13.93
2019-03-02T23:04:40.716Z,14.87
2019-03-02T23:07:11.134Z,14.30
2019-03-02T23:09:41.999Z,15.43
2019-03-02T23:12:12.363Z,15.33
2019-03-02T23:14:42.746Z,15.53
2019-03-02T23:17:13.196Z,16.03
2019-03-02T23:19:43.720Z,15.43
2019-03-02T23:22:14.101Z,16.53
2019-03-02T23:24:44.649Z,14.60
2019-03-02T23:27:15.361Z,14.77
2019-03-02T23:29:45.754Z,17.57
2019-03-02T23:32:16.431Z,16.03
2019-03-02T23:34:47.029Z,15.80
2019-03-02T23:37:17.374Z,17.17
2019-03-02T23:39:49.011Z,17.20
2019-03-02T23:42:20.182Z,16.53
2019-03-02T23:44:50.640Z,17.17
2019-03-02T23:47:21.011Z,18.10
2019-03-02T23:49:51.363Z,18.00
2019-03-02T23:52:22.005Z,17.77
2019-03-02T23:54:52.754Z,19.07
2019-03-02T23:57:24.025Z,18.13
2019-03-02T23:59:54.633Z,19.47
